Time;durP1;ratioP1;P1;durP2;ratioP2;P2;SDS_P1;SDS_P2;PMS_P1;PMS_P2;Temp;Humidity;BMP_temperature;BMP_pressure;BME280_temperature;BME280_humidity;BME280_pressure;Samples;Min_cycle;Max_cycle;Signal;HPM_P1;HPM_P2
2024/01/03 00:00:04;;;;;;;4.35;0.90;;;9.90;99.90;;;;;;5095162;28;20042;-49
2024/01/03 00:02:30;;;;;;;3.17;0.90;;;9.90;99.90;;;;;;5111273;28;20024;-49
2024/01/03 00:04:56;;;;;;;2.50;0.88;;;9.90;99.90;;;;;;5111770;28;20043;-49
2024/01/03 00:07:21;;;;;;;1.95;0.50;;;9.90;99.90;;;;;;5111927;28;20073;-50
2024/01/03 00:09:47;;;;;;;1.42;0.70;;;9.90;99.90;;;;;;5128737;28;20024;-50
2024/01/03 00:12:14;;;;;;;2.20;0.70;;;9.90;99.90;;;;;;5111822;28;20031;-49
2024/01/03 00:14:40;;;;;;;1.10;0.65;;;9.80;99.90;;;;;;5111551;28;20028;-49
2024/01/03 00:17:06;;;;;;;2.22;0.70;;;9.90;99.90;;;;;;5111619;28;20094;-49
2024/01/03 00:19:33;;;;;;;1.48;0.50;;;9.90;99.90;;;;;;5128493;28;20028;-50
2024/01/03 00:22:00;;;;;;;0.75;0.50;;;9.90;99.90;;;;;;5128777;28;20125;-50
2024/01/03 00:24:26;;;;;;;1.58;0.63;;;9.90;99.90;;;;;;5112839;28;20137;-50
2024/01/03 00:26:51;;;;;;;0.60;0.60;;;9.90;99.90;;;;;;5128802;28;20456;-50
2024/01/03 00:29:23;;;;;;;0.80;0.40;;;9.90;99.90;;;;;;5111432;28;20024;-50
2024/01/03 00:31:48;;;;;;;2.58;0.57;;;9.90;99.90;;;;;;5112882;28;20103;-49
2024/01/03 00:34:20;;;;;;;1.70;0.90;;;9.90;99.90;;;;;;5111361;28;20027;-48
2024/01/03 00:36:50;;;;;;;3.53;0.70;;;9.90;99.90;;;;;;5112868;28;20039;-50
2024/01/03 00:39:32;;;;;;;1.10;0.57;;;9.90;99.90;;;;;;5111051;28;20052;-50
2024/01/03 00:41:58;;;;;;;4.85;0.50;;;9.80;99.90;;;;;;5112895;28;20035;-49
2024/01/03 00:44:24;;;;;;;1.60;0.60;;;9.80;99.90;;;;;;5111096;28;20480;-50
2024/01/03 00:46:50;;;;;;;1.05;0.85;;;9.80;99.90;;;;;;5111517;28;20027;-49
2024/01/03 00:49:16;;;;;;;1.00;0.52;;;9.80;99.90;;;;;;5111392;28;20032;-50
2024/01/03 00:51:45;;;;;;;0.70;0.40;;;9.80;99.90;;;;;;5111389;28;20464;-50
2024/01/03 00:54:11;;;;;;;0.90;0.50;;;9.80;99.90;;;;;;5128071;28;20028;-50
2024/01/03 00:56:36;;;;;;;1.15;0.55;;;9.80;99.90;;;;;;5111351;28;20058;-50
2024/01/03 00:59:02;;;;;;;0.65;0.40;;;9.80;99.90;;;;;;5111368;28;20039;-49
2024/01/03 01:01:27;;;;;;;1.50;0.60;;;9.80;99.90;;;;;;5126541;28;20020;-49
2024/01/03 01:03:53;;;;;;;1.23;0.70;;;9.80;99.90;;;;;;5125010;28;20032;-49
2024/01/03 01:06:18;;;;;;;0.88;0.47;;;9.80;99.90;;;;;;5125059;28;20024;-49
2024/01/03 01:08:44;;;;;;;2.13;0.38;;;9.80;99.90;;;;;;5109322;28;20038;-49
2024/01/03 01:11:09;;;;;;;0.45;0.40;;;9.80;99.90;;;;;;5109309;28;20020;-49
2024/01/03 01:13:35;;;;;;;0.60;0.40;;;9.80;99.90;;;;;;5109245;28;20028;-50
2024/01/03 01:16:01;;;;;;;2.67;0.50;;;9.80;99.90;;;;;;5109191;28;20059;-50
2024/01/03 01:18:26;;;;;;;1.15;0.60;;;9.80;99.90;;;;;;5108962;28;20032;-49
2024/01/03 01:20:52;;;;;;;1.38;0.60;;;9.80;99.90;;;;;;5109067;28;20492;-50
2024/01/03 01:23:17;;;;;;;1.85;0.70;;;9.80;99.90;;;;;;5109067;28;20097;-50
2024/01/03 01:25:43;;;;;;;0.75;0.60;;;9.80;99.90;;;;;;5108997;28;20027;-50
2024/01/03 01:28:08;;;;;;;1.25;0.60;;;9.80;99.90;;;;;;5124649;28;20024;-49
2024/01/03 01:30:34;;;;;;;1.02;0.50;;;9.80;99.90;;;;;;5109006;28;20024;-50
2024/01/03 01:32:59;;;;;;;1.13;0.50;;;9.80;99.90;;;;;;5108777;28;20028;-50
2024/01/03 01:35:25;;;;;;;0.75;0.60;;;9.80;99.90;;;;;;5108615;28;20063;-49
2024/01/03 01:37:51;;;;;;;0.45;0.40;;;9.80;99.90;;;;;;5124494;28;20039;-50
2024/01/03 01:40:16;;;;;;;0.60;0.40;;;9.80;99.90;;;;;;5124500;28;20032;-50
2024/01/03 01:42:43;;;;;;;1.20;0.50;;;9.80;99.90;;;;;;5090128;28;20052;-50
2024/01/03 01:45:09;;;;;;;1.75;0.60;;;9.80;99.90;;;;;;5124822;28;20032;-49
2024/01/03 01:47:35;;;;;;;0.98;0.50;;;9.80;99.90;;;;;;5108217;28;20035;-50
2024/01/03 01:50:01;;;;;;;0.75;0.57;;;9.80;99.90;;;;;;5124208;28;20017;-50
2024/01/03 01:52:26;;;;;;;0.95;0.60;;;9.80;99.90;;;;;;5124238;28;20038;-50
2024/01/03 01:54:52;;;;;;;1.02;0.40;;;9.80;99.90;;;;;;5090210;28;20032;-50
2024/01/03 01:57:18;;;;;;;0.70;0.45;;;9.80;99.90;;;;;;5124033;28;20024;-49
2024/01/03 01:59:43;;;;;;;0.98;0.60;;;9.80;99.90;;;;;;5106952;28;20036;-50
2024/01/03 02:02:10;;;;;;;1.92;0.82;;;9.80;99.90;;;;;;5107173;28;20027;-50
2024/01/03 02:04:35;;;;;;;2.25;0.50;;;9.80;99.90;;;;;;5106715;28;20039;-50
2024/01/03 02:07:01;;;;;;;2.05;0.50;;;9.80;99.90;;;;;;5107036;28;20378;-50
2024/01/03 02:09:27;;;;;;;0.63;0.45;;;9.80;99.90;;;;;;5106902;28;20472;-50
2024/01/03 02:11:52;;;;;;;1.95;0.35;;;9.80;99.90;;;;;;5089815;28;20027;-50
2024/01/03 02:14:18;;;;;;;2.45;0.40;;;9.80;99.90;;;;;;5089704;28;20071;-50
2024/01/03 02:16:43;;;;;;;1.38;0.55;;;9.80;99.90;;;;;;5123736;28;20036;-50
2024/01/03 02:19:09;;;;;;;0.65;0.50;;;9.80;99.90;;;;;;5108115;28;20028;-50
2024/01/03 02:21:34;;;;;;;0.60;0.47;;;9.80;99.90;;;;;;5123730;28;20391;-50
2024/01/03 02:24:00;;;;;;;1.38;0.47;;;9.80;99.90;;;;;;5123604;28;20300;-50
2024/01/03 02:26:26;;;;;;;2.10;0.40;;;9.80;99.90;;;;;;5123654;28;20020;-50
2024/01/03 02:28:51;;;;;;;0.60;0.50;;;9.80;99.90;;;;;;5123568;28;20434;-50
2024/01/03 02:31:17;;;;;;;0.80;0.47;;;9.80;99.90;;;;;;5089316;28;20020;-50
2024/01/03 02:33:42;;;;;;;0.60;0.50;;;9.80;99.90;;;;;;5123166;28;20051;-50
2024/01/03 02:36:08;;;;;;;1.10;0.43;;;9.80;99.90;;;;;;5107785;28;20024;-50
2024/01/03 02:38:33;;;;;;;0.50;0.50;;;9.80;99.90;;;;;;5123226;28;20372;-49
2024/01/03 02:40:59;;;;;;;0.90;0.60;;;9.80;99.90;;;;;;5123697;28;20073;-50
2024/01/03 02:43:25;;;;;;;0.70;0.40;;;9.80;99.90;;;;;;5123425;28;20388;-50
2024/01/03 02:45:50;;;;;;;1.00;0.60;;;9.80;99.90;;;;;;5123127;28;20055;-50
2024/01/03 02:48:16;;;;;;;0.50;0.32;;;9.80;99.90;;;;;;5107197;28;20039;-49
2024/01/03 02:50:44;;;;;;;0.65;0.30;;;9.80;99.90;;;;;;5107225;28;20079;-49
2024/01/03 02:53:10;;;;;;;0.52;0.30;;;9.80;99.90;;;;;;5122683;28;20020;-49
2024/01/03 02:55:35;;;;;;;0.65;0.43;;;9.80;99.90;;;;;;5122979;28;20058;-50
2024/01/03 02:58:01;;;;;;;1.00;0.50;;;9.80;99.90;;;;;;5122787;28;20475;-49
2024/01/03 03:00:27;;;;;;;0.57;0.43;;;9.80;99.90;;;;;;5105734;28;20028;-50
2024/01/03 03:02:52;;;;;;;0.82;0.65;;;9.80;99.90;;;;;;5123072;28;20055;-49
2024/01/03 03:05:18;;;;;;;0.38;0.38;;;9.80;99.90;;;;;;5105844;28;20066;-50
2024/01/03 03:07:43;;;;;;;0.30;0.30;;;9.80;99.90;;;;;;5088993;28;20020;-50
2024/01/03 03:10:11;;;;;;;1.35;0.70;;;9.80;99.90;;;;;;5123281;28;20031;-50
2024/01/03 03:12:37;;;;;;;1.35;0.30;;;9.80;99.90;;;;;;5105759;28;20036;-50
2024/01/03 03:15:04;;;;;;;0.38;0.30;;;9.80;99.90;;;;;;5107061;28;20087;-50
2024/01/03 03:17:30;;;;;;;0.40;0.40;;;9.80;99.90;;;;;;5106931;28;20024;-50
2024/01/03 03:19:56;;;;;;;1.50;0.60;;;9.80;99.90;;;;;;5106932;28;20392;-50
2024/01/03 03:22:21;;;;;;;0.50;0.40;;;9.80;99.90;;;;;;5106904;28;20027;-49
2024/01/03 03:24:47;;;;;;;0.38;0.38;;;9.80;99.90;;;;;;5106315;28;20040;-49
2024/01/03 03:27:12;;;;;;;0.30;0.30;;;9.80;99.90;;;;;;5088488;28;20024;-50
2024/01/03 03:29:38;;;;;;;0.40;0.30;;;9.80;99.90;;;;;;5106983;28;20021;-50
2024/01/03 03:32:04;;;;;;;4.55;0.40;;;9.80;99.90;;;;;;5122554;28;20020;-50
2024/01/03 03:34:29;;;;;;;1.08;0.45;;;9.80;99.90;;;;;;5122019;28;20048;-50
2024/01/03 03:36:55;;;;;;;1.00;0.50;;;9.80;99.90;;;;;;5122440;28;20076;-50
2024/01/03 03:39:20;;;;;;;0.38;0.30;;;9.80;99.90;;;;;;5105116;28;20040;-50
2024/01/03 03:41:46;;;;;;;0.30;0.20;;;9.80;99.90;;;;;;5122321;28;20028;-50
2024/01/03 03:44:12;;;;;;;1.52;0.77;;;9.80;99.90;;;;;;5122221;28;20032;-50
2024/01/03 03:46:37;;;;;;;0.60;0.52;;;9.80;99.90;;;;;;5104989;28;20020;-50
2024/01/03 03:49:03;;;;;;;0.73;0.47;;;9.80;99.90;;;;;;5105153;28;20060;-49
2024/01/03 03:51:28;;;;;;;0.68;0.40;;;9.80;99.90;;;;;;5105132;28;20021;-49
2024/01/03 03:53:54;;;;;;;1.65;0.70;;;9.80;99.90;;;;;;5106533;28;20085;-50
2024/01/03 03:56:23;;;;;;;0.73;0.43;;;9.80;99.90;;;;;;5088189;28;20031;-50
2024/01/03 03:58:49;;;;;;;0.57;0.40;;;9.90;99.90;;;;;;5105007;28;20024;-50
2024/01/03 04:01:14;;;;;;;1.48;0.60;;;9.80;99.90;;;;;;5106387;28;20027;-49
2024/01/03 04:03:40;;;;;;;1.65;0.80;;;9.80;99.90;;;;;;5104996;28;20051;-49
2024/01/03 04:06:06;;;;;;;0.57;0.30;;;9.80;99.90;;;;;;5106054;28;20043;-50
2024/01/03 04:08:31;;;;;;;0.95;0.50;;;9.80;99.90;;;;;;5106219;28;20548;-50
2024/01/03 04:10:57;;;;;;;0.80;0.40;;;9.80;99.90;;;;;;5121922;28;20021;-50
2024/01/03 04:13:22;;;;;;;0.52;0.52;;;9.80;99.90;;;;;;5106081;28;20047;-49
2024/01/03 04:15:48;;;;;;;1.42;0.70;;;9.80;99.90;;;;;;5106065;28;20088;-48
2024/01/03 04:18:14;;;;;;;0.40;0.40;;;9.80;99.90;;;;;;5122015;28;20036;-50
2024/01/03 04:20:39;;;;;;;0.52;0.30;;;9.80;99.90;;;;;;5122631;28;20030;-50
2024/01/03 04:23:05;;;;;;;0.50;0.45;;;9.80;99.90;;;;;;5106736;28;20055;-49
2024/01/03 04:25:30;;;;;;;0.82;0.38;;;9.80;99.90;;;;;;5087849;28;20039;-49
2024/01/03 04:27:56;;;;;;;0.57;0.32;;;9.80;99.90;;;;;;5121801;28;20031;-50
2024/01/03 04:30:22;;;;;;;1.35;0.75;;;9.80;99.90;;;;;;5121977;28;20020;-49
2024/01/03 04:32:47;;;;;;;0.80;0.32;;;9.80;99.90;;;;;;5087769;28;20468;-50
2024/01/03 04:35:13;;;;;;;0.82;0.55;;;9.80;99.90;;;;;;5121771;28;20076;-50
2024/01/03 04:37:39;;;;;;;0.38;0.38;;;9.90;99.90;;;;;;5123715;28;20473;-50
2024/01/03 04:40:05;;;;;;;2.47;0.60;;;9.80;99.90;;;;;;5125641;28;20024;-49
2024/01/03 04:42:30;;;;;;;0.85;0.50;;;9.80;99.90;;;;;;5109621;28;20093;-50
2024/01/03 04:44:56;;;;;;;0.35;0.25;;;9.80;99.90;;;;;;5125471;28;20395;-49
2024/01/03 04:47:21;;;;;;;1.10;0.60;;;9.80;99.90;;;;;;5109523;28;20040;-49
2024/01/03 04:49:47;;;;;;;0.80;0.50;;;9.80;99.90;;;;;;5108502;28;20032;-49
2024/01/03 04:52:13;;;;;;;0.77;0.40;;;9.80;99.90;;;;;;5109740;28;20024;-50
2024/01/03 04:54:38;;;;;;;0.43;0.30;;;9.80;99.90;;;;;;5125422;28;20054;-49
2024/01/03 04:57:04;;;;;;;1.13;0.40;;;9.80;99.90;;;;;;5109578;28;20028;-49
2024/01/03 04:59:30;;;;;;;0.93;0.50;;;9.80;99.90;;;;;;5125350;28;20056;-49
2024/01/03 05:01:55;;;;;;;0.50;0.50;;;9.80;99.90;;;;;;5109500;28;20035;-50
2024/01/03 05:04:21;;;;;;;1.90;0.63;;;9.80;99.90;;;;;;5109356;28;20047;-50
2024/01/03 05:06:48;;;;;;;0.90;0.47;;;9.80;99.90;;;;;;5109129;28;20032;-50
2024/01/03 05:09:13;;;;;;;1.48;0.70;;;9.80;99.90;;;;;;5109353;28;20024;-49
2024/01/03 05:11:39;;;;;;;0.70;0.40;;;9.80;99.90;;;;;;5125133;28;20020;-49
2024/01/03 05:14:05;;;;;;;0.50;0.50;;;9.80;99.90;;;;;;5090939;28;20035;-58
2024/01/03 05:16:30;;;;;;;0.90;0.73;;;9.80;99.90;;;;;;5124756;28;20190;-58
2024/01/03 05:18:56;;;;;;;0.40;0.35;;;9.80;99.90;;;;;;5124751;28;20058;-58
2024/01/03 05:21:22;;;;;;;0.88;0.40;;;9.80;99.90;;;;;;5108829;28;20071;-49
2024/01/03 05:23:47;;;;;;;1.02;0.60;;;9.80;99.90;;;;;;5124614;28;20039;-50
2024/01/03 05:26:14;;;;;;;1.10;0.43;;;9.80;99.90;;;;;;5108924;28;20069;-49
2024/01/03 05:28:39;;;;;;;1.08;0.52;;;9.80;99.90;;;;;;5108976;28;20043;-50
2024/01/03 05:31:05;;;;;;;1.08;0.60;;;9.80;99.90;;;;;;5108787;28;20024;-49
2024/01/03 05:33:30;;;;;;;1.65;0.52;;;9.80;99.90;;;;;;5108804;28;20036;-50
2024/01/03 05:35:56;;;;;;;1.02;0.60;;;9.80;99.90;;;;;;5107127;28;20059;-50
2024/01/03 05:38:22;;;;;;;1.00;0.60;;;9.80;99.90;;;;;;5124269;28;20074;-50
2024/01/03 05:40:47;;;;;;;1.65;0.70;;;9.80;99.90;;;;;;5108505;28;20028;-50
2024/01/03 05:43:14;;;;;;;6.82;0.88;;;9.90;99.90;;;;;;5108473;28;20028;-49
2024/01/03 05:45:40;;;;;;;6.82;1.20;;;9.90;99.90;;;;;;5124080;28;20050;-49
2024/01/03 05:48:05;;;;;;;10.32;1.23;;;9.90;99.90;;;;;;5107998;28;20028;-49
2024/01/03 05:50:31;;;;;;;20.20;2.58;;;9.90;99.90;;;;;;5108343;28;20027;-50
2024/01/03 05:52:57;;;;;;;14.82;2.50;;;9.90;99.90;;;;;;5124034;28;20039;-49
2024/01/03 05:55:23;;;;;;;39.97;3.58;;;9.90;99.90;;;;;;5108474;28;20024;-50
2024/01/03 05:57:48;;;;;;;41.42;5.60;;;9.90;99.90;;;;;;5108512;28;20046;-49
2024/01/03 06:00:15;;;;;;;29.63;3.97;;;9.90;99.90;;;;;;5108365;28;20028;-50
2024/01/03 06:02:41;;;;;;;38.20;4.07;;;9.90;99.90;;;;;;5090102;28;20020;-50
2024/01/03 06:05:08;;;;;;;59.97;5.97;;;9.90;99.90;;;;;;5089762;28;20032;-49
2024/01/03 06:07:33;;;;;;;48.47;5.78;;;9.90;99.90;;;;;;5107835;28;20024;-49
2024/01/03 06:09:59;;;;;;;50.75;6.07;;;9.90;99.90;;;;;;5107932;28;20024;-49
2024/01/03 06:12:24;;;;;;;44.97;6.07;;;9.90;99.90;;;;;;5123702;28;20013;-49
2024/01/03 06:14:50;;;;;;;42.67;4.78;;;9.90;99.90;;;;;;5123577;28;20036;-49
2024/01/03 06:17:15;;;;;;;33.42;4.70;;;9.90;99.90;;;;;;5089584;28;20189;-50
2024/01/03 06:19:41;;;;;;;38.55;4.68;;;9.90;99.90;;;;;;5107891;28;20376;-50
2024/01/03 06:22:07;;;;;;;42.10;4.13;;;9.90;99.90;;;;;;5107654;28;20026;-50
2024/01/03 06:24:33;;;;;;;38.78;5.25;;;9.90;99.90;;;;;;5107643;28;20515;-50
2024/01/03 06:26:58;;;;;;;27.58;4.28;;;9.90;99.90;;;;;;5106353;28;20034;-49
2024/01/03 06:29:24;;;;;;;39.42;4.28;;;9.90;99.90;;;;;;5107708;28;20047;-50
2024/01/03 06:31:49;;;;;;;42.05;4.38;;;10.00;99.90;;;;;;5123229;28;20449;-50
2024/01/03 06:34:15;;;;;;;30.50;3.67;;;9.90;99.90;;;;;;5107200;28;20036;-50
2024/01/03 06:36:40;;;;;;;24.05;4.40;;;9.90;99.90;;;;;;5107371;28;20028;-49
2024/01/03 06:39:06;;;;;;;31.55;3.63;;;9.90;99.90;;;;;;5089259;28;20036;-50
2024/01/03 06:41:32;;;;;;;19.88;3.28;;;9.90;99.90;;;;;;5089580;28;20024;-49
2024/01/03 06:43:57;;;;;;;20.38;3.90;;;9.90;99.90;;;;;;5123677;28;20062;-50
2024/01/03 06:46:29;;;;;;;17.33;3.05;;;9.90;99.90;;;;;;5107880;28;20028;-50
2024/01/03 06:48:56;;;;;;;23.35;3.25;;;9.90;99.90;;;;;;5089236;28;20124;-50
2024/01/03 06:51:22;;;;;;;19.95;3.13;;;9.90;99.90;;;;;;5107382;28;20031;-49
2024/01/03 06:53:48;;;;;;;17.02;2.67;;;9.90;99.90;;;;;;5122902;28;20035;-50
2024/01/03 06:56:18;;;;;;;8.40;2.40;;;9.90;99.90;;;;;;5088877;28;20126;-50
2024/01/03 06:58:44;;;;;;;26.25;3.28;;;9.90;99.90;;;;;;5104986;28;20032;-49
2024/01/03 07:01:09;;;;;;;21.27;3.45;;;9.90;99.90;;;;;;5106217;28;20031;-49
2024/01/03 07:03:35;;;;;;;14.98;2.17;;;10.00;99.90;;;;;;5107035;28;20111;-50
2024/01/03 07:06:01;;;;;;;9.60;2.38;;;9.90;99.90;;;;;;5105617;28;20024;-50
2024/01/03 07:08:26;;;;;;;8.57;1.83;;;10.00;99.90;;;;;;5106617;28;20040;-50
2024/01/03 07:10:52;;;;;;;12.23;1.88;;;9.90;99.90;;;;;;5105626;28;20020;-49
2024/01/03 07:13:18;;;;;;;8.82;1.85;;;9.90;99.90;;;;;;5122374;28;20116;-50
2024/01/03 07:15:44;;;;;;;10.55;2.20;;;10.00;99.90;;;;;;5106764;28;20056;-50
2024/01/03 07:18:10;;;;;;;12.68;1.88;;;10.00;99.90;;;;;;5106665;28;20047;-50
2024/01/03 07:20:35;;;;;;;9.25;1.90;;;10.00;99.90;;;;;;5122555;28;20085;-50
2024/01/03 07:23:01;;;;;;;9.25;2.13;;;10.00;99.90;;;;;;5106724;28;20405;-50
2024/01/03 07:25:26;;;;;;;9.05;1.83;;;10.00;99.90;;;;;;5105086;28;20396;-50
2024/01/03 07:27:52;;;;;;;12.55;2.20;;;10.00;99.90;;;;;;5122260;28;20035;-49
2024/01/03 07:30:18;;;;;;;10.20;1.70;;;10.00;99.90;;;;;;5106435;28;20083;-50
2024/01/03 07:32:43;;;;;;;11.50;1.90;;;10.00;99.90;;;;;;5121998;28;20027;-50
2024/01/03 07:35:09;;;;;;;7.50;2.20;;;10.00;99.90;;;;;;5106407;28;20036;-49
2024/01/03 07:37:35;;;;;;;8.00;1.60;;;9.90;99.90;;;;;;5122293;28;20028;-49
2024/01/03 07:40:00;;;;;;;12.23;1.77;;;9.90;99.90;;;;;;5105137;28;20396;-50
2024/01/03 07:42:26;;;;;;;8.10;1.42;;;10.00;99.90;;;;;;5106279;28;20109;-50
2024/01/03 07:44:51;;;;;;;7.25;1.88;;;10.00;99.90;;;;;;5106467;28;20062;-50
2024/01/03 07:47:17;;;;;;;8.50;1.50;;;10.00;99.90;;;;;;5121932;28;20028;-50
2024/01/03 07:49:44;;;;;;;11.98;2.15;;;10.00;99.90;;;;;;5086274;28;20164;-50
2024/01/03 07:52:09;;;;;;;7.03;1.98;;;9.90;99.90;;;;;;5109587;28;20061;-49
2024/01/03 07:54:35;;;;;;;12.90;1.77;;;10.00;99.90;;;;;;5102578;28;20032;-49
2024/01/03 07:57:04;;;;;;;19.50;2.10;;;9.90;99.90;;;;;;5105843;28;20048;-49
2024/01/03 07:59:31;;;;;;;10.73;1.85;;;10.00;99.90;;;;;;5104096;28;20079;-49
2024/01/03 08:01:56;;;;;;;9.48;1.83;;;10.00;99.90;;;;;;5088005;28;20039;-50
2024/01/03 08:04:22;;;;;;;7.93;1.60;;;10.00;99.90;;;;;;5087926;28;20036;-50
2024/01/03 08:06:48;;;;;;;9.00;1.80;;;10.00;99.90;;;;;;5088092;28;20024;-49
2024/01/03 08:09:14;;;;;;;5.20;1.60;;;10.00;99.90;;;;;;5088111;28;20066;-50
2024/01/03 08:11:39;;;;;;;5.25;1.80;;;10.00;99.90;;;;;;5101171;28;20028;-50
2024/01/03 08:14:05;;;;;;;14.63;1.60;;;10.00;99.90;;;;;;5089901;28;20036;-50
2024/01/03 08:16:30;;;;;;;4.18;1.25;;;10.00;99.90;;;;;;5107064;28;20020;-50
2024/01/03 08:18:56;;;;;;;8.18;1.30;;;10.00;99.90;;;;;;5123557;28;20043;-49
2024/01/03 08:21:21;;;;;;;13.40;1.83;;;10.00;99.90;;;;;;5123723;28;20028;-50
2024/01/03 08:23:47;;;;;;;5.55;1.40;;;10.00;99.90;;;;;;5089631;28;20047;-49
2024/01/03 08:26:14;;;;;;;4.88;1.00;;;10.00;99.90;;;;;;5107933;28;20024;-50
2024/01/03 08:28:40;;;;;;;11.48;1.73;;;10.00;99.90;;;;;;5123586;28;20029;-50
2024/01/03 08:31:08;;;;;;;10.85;2.10;;;10.00;99.90;;;;;;5125113;28;20020;-49
2024/01/03 08:33:36;;;;;;;8.38;1.65;;;10.00;99.90;;;;;;5108519;28;20032;-50
2024/01/03 08:36:02;;;;;;;6.88;1.63;;;10.00;99.90;;;;;;5091728;28;20028;-50
2024/01/03 08:38:28;;;;;;;10.18;2.10;;;10.00;99.90;;;;;;5125340;28;20047;-50
2024/01/03 08:40:53;;;;;;;12.15;1.42;;;10.00;99.90;;;;;;5109770;28;20032;-49
2024/01/03 08:43:19;;;;;;;4.97;1.45;;;10.00;99.90;;;;;;5109714;28;20056;-50
2024/01/03 08:45:44;;;;;;;3.30;1.33;;;10.10;99.90;;;;;;5109703;28;20024;-50
2024/01/03 08:48:10;;;;;;;13.90;1.55;;;10.10;99.90;;;;;;5091473;28;20035;-49
2024/01/03 08:50:36;;;;;;;12.27;2.05;;;10.10;99.90;;;;;;5125537;28;20044;-50
2024/01/03 08:53:01;;;;;;;8.63;1.10;;;10.10;99.90;;;;;;5108088;28;20052;-50
2024/01/03 08:55:27;;;;;;;8.73;1.30;;;10.10;99.90;;;;;;5125246;28;20085;-50
2024/01/03 08:57:56;;;;;;;12.18;2.00;;;10.10;99.90;;;;;;5125079;28;20020;-50
2024/01/03 09:00:23;;;;;;;15.35;1.67;;;10.10;99.90;;;;;;5124730;28;20039;-50
2024/01/03 09:02:49;;;;;;;10.23;1.48;;;10.10;99.90;;;;;;5125057;28;20028;-50
2024/01/03 09:05:14;;;;;;;7.47;1.23;;;10.10;99.90;;;;;;5109089;28;20059;-50
2024/01/03 09:07:42;;;;;;;13.57;1.60;;;10.10;99.90;;;;;;5109070;28;20024;-50
2024/01/03 09:10:08;;;;;;;5.07;1.10;;;10.10;99.90;;;;;;5091205;28;20051;-49
2024/01/03 09:12:33;;;;;;;6.88;1.55;;;10.10;99.90;;;;;;5088563;28;20024;-50
2024/01/03 09:14:59;;;;;;;9.52;1.90;;;10.10;99.90;;;;;;5104161;28;20050;-50
2024/01/03 09:17:25;;;;;;;8.95;1.80;;;10.10;99.90;;;;;;5088352;28;20046;-50
2024/01/03 09:19:50;;;;;;;6.88;1.42;;;10.10;99.90;;;;;;5088696;28;20036;-50
2024/01/03 09:22:16;;;;;;;14.15;1.85;;;10.10;99.90;;;;;;5108290;28;20032;-50
2024/01/03 09:24:42;;;;;;;21.70;2.53;;;10.10;99.90;;;;;;5090413;28;20161;-49
2024/01/03 09:27:07;;;;;;;47.92;4.22;;;10.20;99.90;;;;;;5090628;28;20028;-50
2024/01/03 09:29:33;;;;;;;19.52;3.03;;;10.20;99.90;;;;;;5090758;28;20031;-50
2024/01/03 09:31:58;;;;;;;23.33;3.10;;;10.20;99.90;;;;;;5108554;28;20533;-50
2024/01/03 09:34:24;;;;;;;19.33;2.42;;;10.20;99.90;;;;;;5108399;28;20044;-50
2024/01/03 09:36:52;;;;;;;12.13;2.08;;;10.20;99.90;;;;;;5090394;28;20032;-49
2024/01/03 09:39:18;;;;;;;23.60;2.40;;;10.20;99.90;;;;;;5090383;28;20036;-50
2024/01/03 09:41:43;;;;;;;29.08;3.55;;;10.20;99.90;;;;;;5090409;28;20545;-50
2024/01/03 09:44:09;;;;;;;12.98;2.85;;;10.20;99.90;;;;;;5090269;28;20051;-50
2024/01/03 09:46:35;;;;;;;28.13;3.78;;;10.20;99.90;;;;;;5073514;28;20045;-50
2024/01/03 09:49:00;;;;;;;48.20;5.25;;;10.30;99.90;;;;;;5094392;28;20031;-50
2024/01/03 09:51:26;;;;;;;32.92;4.43;;;10.30;99.60;;;;;;5123162;28;20092;-50
2024/01/03 09:53:53;;;;;;;35.03;4.38;;;10.30;99.30;;;;;;5123911;28;20027;-50
2024/01/03 09:56:19;;;;;;;39.50;4.18;;;10.30;99.30;;;;;;5124234;28;20077;-50
2024/01/03 09:58:46;;;;;;;26.42;3.83;;;10.30;99.30;;;;;;5118107;28;20032;-50
2024/01/03 10:01:11;;;;;;;22.30;3.10;;;10.30;99.30;;;;;;5096807;28;20049;-50
2024/01/03 10:03:37;;;;;;;28.98;3.90;;;10.30;98.80;;;;;;5128165;28;20047;-50
2024/01/03 10:06:15;;;;;;;16.95;2.65;;;10.30;98.30;;;;;;5098697;28;20024;-50
2024/01/03 10:08:41;;;;;;;17.95;3.17;;;10.40;98.20;;;;;;5109101;28;20039;-50
2024/01/03 10:11:20;;;;;;;59.75;5.28;;;10.40;97.80;;;;;;5103753;28;21338;-50
2024/01/03 10:13:47;;;;;;;39.40;4.20;;;10.40;97.90;;;;;;5122314;28;20028;-50
2024/01/03 10:16:13;;;;;;;98.03;9.55;;;10.40;98.00;;;;;;5123510;28;20032;-50
2024/01/03 10:18:39;;;;;;;43.67;5.35;;;10.40;97.70;;;;;;5105920;28;20032;-50
2024/01/03 10:21:15;;;;;;;48.25;4.85;;;10.50;97.30;;;;;;5107906;28;20379;-49
2024/01/03 10:23:42;;;;;;;17.35;3.20;;;10.40;96.60;;;;;;5121652;28;20032;-50
2024/01/03 10:26:08;;;;;;;12.57;2.95;;;10.50;96.40;;;;;;5106907;28;20140;-50
2024/01/03 10:28:33;;;;;;;32.30;4.68;;;10.50;95.90;;;;;;5127716;28;20122;-50
2024/01/03 10:30:59;;;;;;;43.38;4.05;;;10.50;95.80;;;;;;5090481;28;20055;-50
2024/01/03 10:33:25;;;;;;;25.27;4.22;;;10.50;96.00;;;;;;5116312;28;20020;-50
2024/01/03 10:35:50;;;;;;;52.45;6.53;;;10.50;96.20;;;;;;5124479;28;20043;-50
2024/01/03 10:38:17;;;;;;;41.53;4.75;;;10.60;96.00;;;;;;5090894;28;20061;-50
2024/01/03 10:40:44;;;;;;;50.95;5.30;;;10.60;96.00;;;;;;5089843;28;20035;-49
2024/01/03 10:43:09;;;;;;;48.42;5.60;;;10.60;96.00;;;;;;5104265;28;20062;-50
2024/01/03 10:45:35;;;;;;;45.85;5.65;;;10.60;96.00;;;;;;5109848;28;20112;-50
2024/01/03 10:48:01;;;;;;;40.72;4.35;;;10.60;95.90;;;;;;5120086;27;20071;-50
2024/01/03 10:50:28;;;;;;;41.78;4.30;;;10.60;95.80;;;;;;5097297;28;20049;-50
2024/01/03 10:52:57;;;;;;;47.50;4.68;;;10.70;95.60;;;;;;5132693;27;20035;-50
2024/01/03 10:55:27;;;;;;;53.15;5.72;;;10.70;95.60;;;;;;5072645;28;20024;-50
2024/01/03 10:58:00;;;;;;;54.75;5.05;;;10.70;95.70;;;;;;5101505;28;20053;-50
2024/01/03 11:00:49;;;;;;;47.42;6.05;;;10.70;95.80;;;;;;5115049;28;20108;-50
2024/01/03 11:03:43;;;;;;;46.08;5.32;;;10.70;95.70;;;;;;5109082;28;20083;-50
2024/01/03 11:06:29;;;;;;;47.33;4.97;;;10.70;95.40;;;;;;5068463;28;20032;-50
2024/01/03 11:08:59;;;;;;;46.92;6.10;;;10.80;95.30;;;;;;5086115;28;20115;-50
2024/01/03 11:11:42;;;;;;;35.63;3.92;;;10.80;95.30;;;;;;5086232;28;20043;-50
2024/01/03 11:14:18;;;;;;;50.78;6.47;;;10.80;95.20;;;;;;5073336;28;20423;-50
2024/01/03 11:16:43;;;;;;;45.88;5.05;;;10.80;95.10;;;;;;5105189;28;20027;-50
2024/01/03 11:19:09;;;;;;;56.35;6.50;;;10.90;94.90;;;;;;5088592;28;20028;-48
2024/01/03 11:21:35;;;;;;;171.00;14.27;;;10.90;94.80;;;;;;5088709;28;20051;-49
2024/01/03 11:24:01;;;;;;;87.05;8.35;;;10.90;94.80;;;;;;5110725;28;20028;-49
2024/01/03 11:26:51;;;;;;;62.05;6.47;;;10.90;94.60;;;;;;5111984;28;20032;-50
2024/01/03 11:29:35;;;;;;;76.88;7.25;;;11.00;94.50;;;;;;5106528;28;20028;-50
2024/01/03 11:32:14;;;;;;;56.90;6.03;;;11.00;94.50;;;;;;5106126;28;20043;-50
2024/01/03 11:34:46;;;;;;;73.32;8.75;;;11.00;94.40;;;;;;5088186;28;20488;-50
2024/01/03 11:37:12;;;;;;;60.65;6.95;;;11.00;94.50;;;;;;5114348;28;20025;-50
2024/01/03 11:39:46;;;;;;;80.60;8.85;;;11.00;94.40;;;;;;5111567;28;20040;-50
2024/01/03 11:42:21;;;;;;;81.75;8.43;;;11.10;94.20;;;;;;5092800;28;20035;-50
2024/01/03 11:45:07;;;;;;;67.35;7.70;;;11.10;94.40;;;;;;5138400;27;20031;-50
2024/01/03 11:47:38;;;;;;;63.30;5.65;;;11.10;94.30;;;;;;5107537;28;20091;-50
2024/01/03 11:50:04;;;;;;;88.88;10.15;;;11.10;94.30;;;;;;5094591;28;20050;-50
2024/01/03 11:52:36;;;;;;;99.05;10.40;;;11.20;94.20;;;;;;5121872;28;20024;-50
2024/01/03 11:55:13;;;;;;;79.45;9.95;;;11.20;94.30;;;;;;5106315;28;20088;-50
2024/01/03 11:57:43;;;;;;;58.85;7.50;;;11.20;94.30;;;;;;5118310;28;20054;-50
2024/01/03 12:00:10;;;;;;;77.20;8.85;;;11.30;94.30;;;;;;5103091;28;20036;-50
2024/01/03 12:02:35;;;;;;;96.40;10.38;;;11.30;94.00;;;;;;5112104;28;20555;-50
2024/01/03 12:05:05;;;;;;;82.40;8.80;;;11.30;94.30;;;;;;5126537;28;20031;-50
2024/01/03 12:07:36;;;;;;;85.55;9.25;;;11.30;94.10;;;;;;5126336;28;20016;-51
2024/01/03 12:10:03;;;;;;;78.63;9.13;;;11.30;93.70;;;;;;5091321;28;20049;-50
2024/01/03 12:12:29;;;;;;;62.42;7.68;;;11.40;94.30;;;;;;5108366;28;20027;-50
2024/01/03 12:14:55;;;;;;;63.05;7.07;;;11.30;93.90;;;;;;5112765;28;20428;-50
2024/01/03 12:17:30;;;;;;;65.78;6.70;;;11.40;93.90;;;;;;5118035;28;20039;-50
2024/01/03 12:20:09;;;;;;;68.50;7.93;;;11.40;93.80;;;;;;5071092;28;20082;-50
2024/01/03 12:22:35;;;;;;;66.05;6.90;;;11.40;93.80;;;;;;5084123;28;20039;-50
2024/01/03 12:25:00;;;;;;;54.70;7.25;;;11.40;93.60;;;;;;5095826;28;20047;-50
2024/01/03 12:27:26;;;;;;;63.65;7.15;;;11.50;93.50;;;;;;5124788;28;20031;-50
2024/01/03 12:29:52;;;;;;;59.10;7.30;;;11.50;93.50;;;;;;5090449;28;20479;-50
2024/01/03 12:32:18;;;;;;;71.68;7.22;;;11.50;93.60;;;;;;5097440;28;20020;-50
2024/01/03 12:34:45;;;;;;;44.85;6.10;;;11.50;93.70;;;;;;5120300;28;20059;-50
2024/01/03 12:37:11;;;;;;;34.03;4.80;;;11.50;93.70;;;;;;5079345;28;20058;-50
2024/01/03 12:39:36;;;;;;;201.10;19.17;;;11.60;93.70;;;;;;5084246;28;20127;-50
2024/01/03 12:42:07;;;;;;;74.72;9.35;;;11.60;93.90;;;;;;5091228;28;20491;-50
2024/01/03 12:44:32;;;;;;;86.22;9.48;;;11.60;93.90;;;;;;5126106;28;20061;-50